Estación Meteorológica Peña el Pijo (Robertgarden) [ 04/23/17 09:52:36 CEST ]

Fecha Hora Presion(HPa) Temp (°C) Humedad % Rocio (°C) Viento ( m/s) Direccion Lluvia 1Hora(mm) Lluvia 24H(mm) LLuvia Total(mm)
2017-Apr-04 01:01:48 1014.000 5.1 68 -0.3         1357.67
2017-Apr-04 02:01:42 1013.800 4.9 70 -0.1         1357.67
2017-Apr-04 03:02:24 1013.300 4.0 72 -0.6         1357.67
2017-Apr-04 04:02:01 1012.900 3.6 75 -0.4         1357.67
2017-Apr-04 05:02:17 1012.500 3.8 75 -0.2         1357.67
2017-Apr-04 06:02:09 1012.400 3.0 76 -0.8         1357.67
2017-Apr-04 07:01:53 1012.500 2.3 77 -1.3         1357.67
2017-Apr-04 08:01:45 1012.800 1.6 77 -2.0         1357.67
2017-Apr-04 09:01:37 1013.100 4.3 81 1.3         1357.67
2017-Apr-04 10:01:47 1012.900 12.1 61 4.8         1357.67
2017-Apr-04 11:01:43 1012.900 16.3 38 1.9 2.8 SE     1357.67
2017-Apr-04 12:01:57 1012.800 19.4 32 2.2         1357.67
2017-Apr-04 13:01:56 1012.700 22.1 26 1.5         1357.67
2017-Apr-04 14:01:41 1012.300 21.4 24 -0.2 3.2 SSE     1357.67
2017-Apr-04 15:01:38 1011.800 21.7 26 1.2         1357.67
2017-Apr-04 16:01:39 1011.300 22.4 25 1.2 1.0 SSW     1357.67
2017-Apr-04 17:02:05 1010.500 23.1 25 1.8         1357.67
2017-Apr-04 18:01:41 1010.200 20.6 28 1.3         1357.67
2017-Apr-04 19:02:04 1010.500 19.4 31 1.8         1357.67
2017-Apr-04 20:01:45 1011.000 16.3 36 1.1         1357.67
2017-Apr-04 21:01:51 1011.300 13.9 43 1.5         1357.67
2017-Apr-04 22:01:49 1011.900 11.8 46 0.5         1357.67
2017-Apr-04 23:01:59 1012.300 9.3 54 0.4         1357.67

Temperatura Máxima:23°    Temperatura Mínima:
Presión Máxima:1014.000 Hpa    Presión Mínima:1010.200 Hpa


Volver